sensor_id;sensor_type;location;lat;lon;timestamp;temperature;humidity
1347;DHT22;667;48.796;9.480;2022-12-29T00:02:02;7.40;85.00
1347;DHT22;667;48.796;9.480;2022-12-29T00:04:28;7.40;85.10
1347;DHT22;667;48.796;9.480;2022-12-29T00:06:54;7.50;85.30
1347;DHT22;667;48.796;9.480;2022-12-29T00:09:19;7.50;85.30
1347;DHT22;667;48.796;9.480;2022-12-29T00:11:45;7.50;85.30
1347;DHT22;667;48.796;9.480;2022-12-29T00:14:11;7.50;85.40
1347;DHT22;667;48.796;9.480;2022-12-29T00:16:56;7.50;85.50
1347;DHT22;667;48.796;9.480;2022-12-29T00:19:22;7.50;85.60
1347;DHT22;667;48.796;9.480;2022-12-29T00:22:06;7.50;85.90
1347;DHT22;667;48.796;9.480;2022-12-29T00:24:51;7.50;86.00
1347;DHT22;667;48.796;9.480;2022-12-29T00:27:35;7.50;86.10
1347;DHT22;667;48.796;9.480;2022-12-29T00:30:21;7.50;86.10
1347;DHT22;667;48.796;9.480;2022-12-29T00:36:20;7.60;86.20
1347;DHT22;667;48.796;9.480;2022-12-29T00:38:51;7.60;86.40
1347;DHT22;667;48.796;9.480;2022-12-29T00:41:36;7.60;86.40
1347;DHT22;667;48.796;9.480;2022-12-29T00:44:21;7.60;86.70
1347;DHT22;667;48.796;9.480;2022-12-29T00:46:46;7.60;86.80
1347;DHT22;667;48.796;9.480;2022-12-29T00:49:13;7.60;86.90
1347;DHT22;667;48.796;9.480;2022-12-29T00:52:02;7.70;86.90
1347;DHT22;667;48.796;9.480;2022-12-29T00:54:31;7.70;86.80
1347;DHT22;667;48.796;9.480;2022-12-29T00:56:57;7.70;86.70
1347;DHT22;667;48.796;9.480;2022-12-29T00:59:23;7.70;86.40
1347;DHT22;667;48.796;9.480;2022-12-29T01:01:49;7.70;86.20
1347;DHT22;667;48.796;9.480;2022-12-29T01:04:15;7.70;86.10
1347;DHT22;667;48.796;9.480;2022-12-29T01:06:41;7.70;86.10
1347;DHT22;667;48.796;9.480;2022-12-29T01:09:07;7.70;86.00
1347;DHT22;667;48.796;9.480;2022-12-29T01:11:51;7.70;85.90
1347;DHT22;667;48.796;9.480;2022-12-29T01:14:18;7.80;86.00
1347;DHT22;667;48.796;9.480;2022-12-29T01:16:44;7.80;86.00
1347;DHT22;667;48.796;9.480;2022-12-29T01:19:10;7.80;86.00
1347;DHT22;667;48.796;9.480;2022-12-29T01:21:36;7.80;85.90
1347;DHT22;667;48.796;9.480;2022-12-29T01:24:02;7.80;85.80
1347;DHT22;667;48.796;9.480;2022-12-29T01:26:27;7.80;86.00
1347;DHT22;667;48.796;9.480;2022-12-29T01:28:53;7.70;86.00
1347;DHT22;667;48.796;9.480;2022-12-29T01:31:19;7.70;86.20
1347;DHT22;667;48.796;9.480;2022-12-29T01:33:44;7.80;86.40
1347;DHT22;667;48.796;9.480;2022-12-29T01:36:13;7.80;86.40
1347;DHT22;667;48.796;9.480;2022-12-29T01:38:39;7.80;86.40
1347;DHT22;667;48.796;9.480;2022-12-29T01:41:06;7.80;86.40
1347;DHT22;667;48.796;9.480;2022-12-29T01:46:49;7.80;86.70
1347;DHT22;667;48.796;9.480;2022-12-29T01:49:24;7.80;86.80
1347;DHT22;667;48.796;9.480;2022-12-29T01:52:02;7.80;86.90
1347;DHT22;667;48.796;9.480;2022-12-29T01:57:03;7.90;87.10
1347;DHT22;667;48.796;9.480;2022-12-29T01:59:38;7.90;87.20
1347;DHT22;667;48.796;9.480;2022-12-29T02:02:05;7.90;87.30
1347;DHT22;667;48.796;9.480;2022-12-29T02:04:32;7.90;87.40
1347;DHT22;667;48.796;9.480;2022-12-29T02:07:03;7.90;87.50
1347;DHT22;667;48.796;9.480;2022-12-29T02:09:30;8.00;87.60
1347;DHT22;667;48.796;9.480;2022-12-29T02:11:56;8.00;87.60
1347;DHT22;667;48.796;9.480;2022-12-29T02:14:23;8.00;87.60
1347;DHT22;667;48.796;9.480;2022-12-29T02:17:08;8.00;87.70
1347;DHT22;667;48.796;9.480;2022-12-29T02:32:59;8.00;88.40
1347;DHT22;667;48.796;9.480;2022-12-29T02:35:37;8.10;87.90
1347;DHT22;667;48.796;9.480;2022-12-29T02:41:08;8.10;87.80
1347;DHT22;667;48.796;9.480;2022-12-29T02:43:54;8.10;87.80
1347;DHT22;667;48.796;9.480;2022-12-29T02:46:22;8.10;87.90
1347;DHT22;667;48.796;9.480;2022-12-29T02:49:15;8.10;87.90
1347;DHT22;667;48.796;9.480;2022-12-29T02:52:00;8.10;87.90
1347;DHT22;667;48.796;9.480;2022-12-29T02:54:26;8.10;87.90
1347;DHT22;667;48.796;9.480;2022-12-29T02:59:39;8.10;88.00
1347;DHT22;667;48.796;9.480;2022-12-29T03:10:43;8.10;88.60
1347;DHT22;667;48.796;9.480;2022-12-29T03:16:23;8.10;89.50
1347;DHT22;667;48.796;9.480;2022-12-29T03:19:14;8.10;90.00
1347;DHT22;667;48.796;9.480;2022-12-29T03:21:54;8.20;90.50
1347;DHT22;667;48.796;9.480;2022-12-29T03:24:43;8.30;91.00
1347;DHT22;667;48.796;9.480;2022-12-29T03:27:14;8.40;90.60
1347;DHT22;667;48.796;9.480;2022-12-29T03:30:02;8.60;90.60
1347;DHT22;667;48.796;9.480;2022-12-29T03:32:42;8.70;90.30
1347;DHT22;667;48.796;9.480;2022-12-29T03:35:10;8.90;90.10
1347;DHT22;667;48.796;9.480;2022-12-29T03:37:45;9.00;89.50
1347;DHT22;667;48.796;9.480;2022-12-29T03:40:13;9.10;88.60
1347;DHT22;667;48.796;9.480;2022-12-29T03:42:39;9.30;87.80
1347;DHT22;667;48.796;9.480;2022-12-29T03:45:07;9.50;86.40
1347;DHT22;667;48.796;9.480;2022-12-29T03:47:33;9.70;84.80
1347;DHT22;667;48.796;9.480;2022-12-29T03:49:58;9.90;83.90
1347;DHT22;667;48.796;9.480;2022-12-29T03:52:24;10.00;81.50
1347;DHT22;667;48.796;9.480;2022-12-29T03:54:50;10.20;80.20
1347;DHT22;667;48.796;9.480;2022-12-29T03:57:15;10.40;79.60
1347;DHT22;667;48.796;9.480;2022-12-29T03:59:41;10.50;78.80
1347;DHT22;667;48.796;9.480;2022-12-29T04:02:06;10.60;78.30
1347;DHT22;667;48.796;9.480;2022-12-29T04:04:32;10.70;77.70
1347;DHT22;667;48.796;9.480;2022-12-29T04:06:57;10.80;76.90
1347;DHT22;667;48.796;9.480;2022-12-29T04:09:23;10.90;76.30
1347;DHT22;667;48.796;9.480;2022-12-29T04:11:48;11.00;76.00
1347;DHT22;667;48.796;9.480;2022-12-29T04:14:14;11.00;75.50
1347;DHT22;667;48.796;9.480;2022-12-29T04:16:40;11.10;75.00
1347;DHT22;667;48.796;9.480;2022-12-29T04:19:06;11.20;74.40
1347;DHT22;667;48.796;9.480;2022-12-29T04:21:32;11.20;74.20
1347;DHT22;667;48.796;9.480;2022-12-29T04:23:58;11.30;74.10
1347;DHT22;667;48.796;9.480;2022-12-29T04:26:24;11.20;74.00
1347;DHT22;667;48.796;9.480;2022-12-29T04:28:49;11.20;73.80
1347;DHT22;667;48.796;9.480;2022-12-29T04:31:15;11.20;73.70
1347;DHT22;667;48.796;9.480;2022-12-29T04:33:40;11.30;73.70
1347;DHT22;667;48.796;9.480;2022-12-29T04:36:06;11.20;73.50
1347;DHT22;667;48.796;9.480;2022-12-29T04:38:31;11.20;73.50
1347;DHT22;667;48.796;9.480;2022-12-29T04:41:00;11.30;73.50
1347;DHT22;667;48.796;9.480;2022-12-29T04:43:26;11.30;73.30
1347;DHT22;667;48.796;9.480;2022-12-29T04:45:52;11.30;73.20
1347;DHT22;667;48.796;9.480;2022-12-29T04:48:17;11.40;73.10
1347;DHT22;667;48.796;9.480;2022-12-29T04:50:43;11.40;72.80
1347;DHT22;667;48.796;9.480;2022-12-29T04:53:08;11.50;72.60
1347;DHT22;667;48.796;9.480;2022-12-29T04:55:34;11.50;72.40
1347;DHT22;667;48.796;9.480;2022-12-29T04:57:59;11.60;72.50
1347;DHT22;667;48.796;9.480;2022-12-29T05:00:25;11.60;72.30
1347;DHT22;667;48.796;9.480;2022-12-29T05:02:51;11.60;72.30
1347;DHT22;667;48.796;9.480;2022-12-29T05:05:17;11.50;73.10
1347;DHT22;667;48.796;9.480;2022-12-29T05:07:43;11.50;72.50
1347;DHT22;667;48.796;9.480;2022-12-29T05:10:08;11.40;72.70
1347;DHT22;667;48.796;9.480;2022-12-29T05:12:36;11.40;72.80
1347;DHT22;667;48.796;9.480;2022-12-29T05:15:02;11.30;73.00
1347;DHT22;667;48.796;9.480;2022-12-29T05:17:28;11.20;73.40
1347;DHT22;667;48.796;9.480;2022-12-29T05:19:54;11.10;74.20
1347;DHT22;667;48.796;9.480;2022-12-29T05:22:20;11.00;74.00
1347;DHT22;667;48.796;9.480;2022-12-29T05:24:46;10.90;75.10
1347;DHT22;667;48.796;9.480;2022-12-29T05:27:11;10.80;75.70
1347;DHT22;667;48.796;9.480;2022-12-29T05:29:37;10.70;76.30
1347;DHT22;667;48.796;9.480;2022-12-29T05:32:02;10.60;76.70
1347;DHT22;667;48.796;9.480;2022-12-29T05:34:28;10.50;77.10
1347;DHT22;667;48.796;9.480;2022-12-29T05:36:53;10.40;77.40
1347;DHT22;667;48.796;9.480;2022-12-29T05:39:19;10.30;77.50
1347;DHT22;667;48.796;9.480;2022-12-29T05:41:45;10.20;77.80
1347;DHT22;667;48.796;9.480;2022-12-29T05:44:11;10.20;78.10
1347;DHT22;667;48.796;9.480;2022-12-29T05:46:37;10.10;78.20
1347;DHT22;667;48.796;9.480;2022-12-29T05:49:02;10.10;78.60
1347;DHT22;667;48.796;9.480;2022-12-29T05:51:28;10.00;78.60
1347;DHT22;667;48.796;9.480;2022-12-29T05:53:54;10.00;78.70
1347;DHT22;667;48.796;9.480;2022-12-29T05:56:19;9.90;80.20
1347;DHT22;667;48.796;9.480;2022-12-29T05:58:45;9.90;80.40
1347;DHT22;667;48.796;9.480;2022-12-29T06:01:10;9.90;80.40
1347;DHT22;667;48.796;9.480;2022-12-29T06:03:36;9.80;80.40
1347;DHT22;667;48.796;9.480;2022-12-29T06:06:02;9.80;80.60
1347;DHT22;667;48.796;9.480;2022-12-29T06:08:27;9.70;80.70
1347;DHT22;667;48.796;9.480;2022-12-29T06:10:53;9.70;80.80
1347;DHT22;667;48.796;9.480;2022-12-29T06:13:18;9.60;80.90
1347;DHT22;667;48.796;9.480;2022-12-29T06:15:44;9.60;80.90
1347;DHT22;667;48.796;9.480;2022-12-29T06:18:09;9.50;81.70
1347;DHT22;667;48.796;9.480;2022-12-29T06:20:35;9.50;81.20
1347;DHT22;667;48.796;9.480;2022-12-29T06:23:01;9.40;81.40
1347;DHT22;667;48.796;9.480;2022-12-29T06:25:26;9.40;81.70
1347;DHT22;667;48.796;9.480;2022-12-29T06:27:52;9.40;81.80
1347;DHT22;667;48.796;9.480;2022-12-29T06:30:17;9.30;82.10
1347;DHT22;667;48.796;9.480;2022-12-29T06:32:47;9.40;82.60
1347;DHT22;667;48.796;9.480;2022-12-29T06:35:12;9.40;82.50
1347;DHT22;667;48.796;9.480;2022-12-29T06:37:38;9.40;82.40
1347;DHT22;667;48.796;9.480;2022-12-29T06:40:04;9.40;82.50
1347;DHT22;667;48.796;9.480;2022-12-29T06:42:29;9.40;82.30
1347;DHT22;667;48.796;9.480;2022-12-29T06:44:55;9.40;82.40
1347;DHT22;667;48.796;9.480;2022-12-29T06:47:24;9.40;82.50
1347;DHT22;667;48.796;9.480;2022-12-29T06:49:49;9.40;82.40
1347;DHT22;667;48.796;9.480;2022-12-29T06:52:15;9.40;82.30
1347;DHT22;667;48.796;9.480;2022-12-29T06:54:40;9.40;82.20
1347;DHT22;667;48.796;9.480;2022-12-29T06:57:06;9.30;82.10
1347;DHT22;667;48.796;9.480;2022-12-29T06:59:32;9.30;82.20
1347;DHT22;667;48.796;9.480;2022-12-29T07:01:57;9.30;82.30
1347;DHT22;667;48.796;9.480;2022-12-29T07:04:23;9.30;83.20
1347;DHT22;667;48.796;9.480;2022-12-29T07:06:49;9.30;82.60
1347;DHT22;667;48.796;9.480;2022-12-29T07:09:14;9.30;82.70
1347;DHT22;667;48.796;9.480;2022-12-29T07:11:43;9.30;82.60
1347;DHT22;667;48.796;9.480;2022-12-29T07:14:10;9.30;82.70
1347;DHT22;667;48.796;9.480;2022-12-29T07:16:36;9.40;82.80
1347;DHT22;667;48.796;9.480;2022-12-29T07:19:02;9.50;82.70
1347;DHT22;667;48.796;9.480;2022-12-29T07:21:28;9.50;82.40
1347;DHT22;667;48.796;9.480;2022-12-29T07:23:54;9.60;82.30
1347;DHT22;667;48.796;9.480;2022-12-29T07:26:20;9.70;82.20
1347;DHT22;667;48.796;9.480;2022-12-29T07:28:45;9.80;82.10
1347;DHT22;667;48.796;9.480;2022-12-29T07:31:16;9.80;81.70
1347;DHT22;667;48.796;9.480;2022-12-29T07:33:42;9.90;81.40
1347;DHT22;667;48.796;9.480;2022-12-29T07:36:09;10.00;80.00
1347;DHT22;667;48.796;9.480;2022-12-29T07:38:35;9.90;80.90
1347;DHT22;667;48.796;9.480;2022-12-29T07:41:00;10.00;79.60
1347;DHT22;667;48.796;9.480;2022-12-29T07:43:26;10.00;79.40
1347;DHT22;667;48.796;9.480;2022-12-29T07:45:51;10.00;79.30
1347;DHT22;667;48.796;9.480;2022-12-29T07:48:17;10.00;79.30
1347;DHT22;667;48.796;9.480;2022-12-29T07:50:42;10.00;79.40
1347;DHT22;667;48.796;9.480;2022-12-29T07:53:08;10.00;79.30
1347;DHT22;667;48.796;9.480;2022-12-29T07:55:34;10.10;79.50
1347;DHT22;667;48.796;9.480;2022-12-29T07:57:59;10.10;79.10
1347;DHT22;667;48.796;9.480;2022-12-29T08:00:25;10.10;79.00
1347;DHT22;667;48.796;9.480;2022-12-29T08:02:51;10.10;79.00
1347;DHT22;667;48.796;9.480;2022-12-29T08:05:16;10.10;79.10
1347;DHT22;667;48.796;9.480;2022-12-29T08:07:43;10.10;79.10
1347;DHT22;667;48.796;9.480;2022-12-29T08:10:10;10.10;79.20
1347;DHT22;667;48.796;9.480;2022-12-29T08:12:37;10.10;79.30
1347;DHT22;667;48.796;9.480;2022-12-29T08:15:04;10.10;79.50
1347;DHT22;667;48.796;9.480;2022-12-29T08:17:30;10.10;79.60
1347;DHT22;667;48.796;9.480;2022-12-29T08:19:55;10.10;79.70
1347;DHT22;667;48.796;9.480;2022-12-29T08:22:21;10.10;79.90
1347;DHT22;667;48.796;9.480;2022-12-29T08:24:46;10.10;80.20
1347;DHT22;667;48.796;9.480;2022-12-29T08:27:12;10.10;80.40
1347;DHT22;667;48.796;9.480;2022-12-29T08:29:37;10.10;80.60
1347;DHT22;667;48.796;9.480;2022-12-29T08:32:03;10.10;80.70
1347;DHT22;667;48.796;9.480;2022-12-29T08:34:31;10.10;81.00
1347;DHT22;667;48.796;9.480;2022-12-29T08:36:56;10.10;81.20
1347;DHT22;667;48.796;9.480;2022-12-29T08:39:22;10.10;81.40
1347;DHT22;667;48.796;9.480;2022-12-29T08:41:47;10.10;81.70
1347;DHT22;667;48.796;9.480;2022-12-29T08:44:13;10.10;81.90
1347;DHT22;667;48.796;9.480;2022-12-29T08:46:39;10.10;82.00
1347;DHT22;667;48.796;9.480;2022-12-29T08:49:05;10.10;82.10
1347;DHT22;667;48.796;9.480;2022-12-29T08:51:30;10.10;82.40
1347;DHT22;667;48.796;9.480;2022-12-29T08:53:56;10.10;82.50
1347;DHT22;667;48.796;9.480;2022-12-29T08:56:21;10.10;82.80
1347;DHT22;667;48.796;9.480;2022-12-29T08:58:49;10.10;83.00
1347;DHT22;667;48.796;9.480;2022-12-29T09:01:15;10.10;83.30
1347;DHT22;667;48.796;9.480;2022-12-29T09:03:41;10.10;83.50
1347;DHT22;667;48.796;9.480;2022-12-29T09:06:06;10.20;83.90
1347;DHT22;667;48.796;9.480;2022-12-29T09:08:32;10.20;83.90
1347;DHT22;667;48.796;9.480;2022-12-29T09:11:14;10.20;84.10
1347;DHT22;667;48.796;9.480;2022-12-29T09:13:40;10.30;84.40
1347;DHT22;667;48.796;9.480;2022-12-29T09:16:06;10.20;84.30
1347;DHT22;667;48.796;9.480;2022-12-29T09:18:31;10.30;84.40
1347;DHT22;667;48.796;9.480;2022-12-29T09:20:59;10.30;84.50
1347;DHT22;667;48.796;9.480;2022-12-29T09:23:25;10.30;84.50
1347;DHT22;667;48.796;9.480;2022-12-29T09:25:51;10.30;84.60
1347;DHT22;667;48.796;9.480;2022-12-29T09:28:16;10.30;84.70
1347;DHT22;667;48.796;9.480;2022-12-29T09:30:42;10.30;84.70
1347;DHT22;667;48.796;9.480;2022-12-29T09:33:08;10.30;84.80
1347;DHT22;667;48.796;9.480;2022-12-29T09:35:33;10.30;85.00
1347;DHT22;667;48.796;9.480;2022-12-29T09:37:59;10.40;85.20
1347;DHT22;667;48.796;9.480;2022-12-29T09:40:26;10.40;85.30
1347;DHT22;667;48.796;9.480;2022-12-29T09:48:29;10.40;85.70
1347;DHT22;667;48.796;9.480;2022-12-29T09:51:00;10.40;85.90
1347;DHT22;667;48.796;9.480;2022-12-29T09:53:36;10.40;86.10
1347;DHT22;667;48.796;9.480;2022-12-29T09:56:05;10.50;86.30
1347;DHT22;667;48.796;9.480;2022-12-29T09:58:48;10.60;85.80
1347;DHT22;667;48.796;9.480;2022-12-29T10:01:23;10.70;85.50
1347;DHT22;667;48.796;9.480;2022-12-29T10:03:54;10.80;85.40
1347;DHT22;667;48.796;9.480;2022-12-29T10:12:15;11.20;82.90
1347;DHT22;667;48.796;9.480;2022-12-29T10:17:39;11.60;80.60
1347;DHT22;667;48.796;9.480;2022-12-29T10:25:37;12.10;78.30
1347;DHT22;667;48.796;9.480;2022-12-29T10:28:06;12.30;77.20
1347;DHT22;667;48.796;9.480;2022-12-29T10:30:36;12.40;76.60
1347;DHT22;667;48.796;9.480;2022-12-29T10:33:07;12.60;76.20
1347;DHT22;667;48.796;9.480;2022-12-29T10:35:39;12.70;75.90
1347;DHT22;667;48.796;9.480;2022-12-29T10:38:28;12.70;75.30
1347;DHT22;667;48.796;9.480;2022-12-29T10:41:08;12.80;74.90
1347;DHT22;667;48.796;9.480;2022-12-29T10:43:45;12.90;74.70
1347;DHT22;667;48.796;9.480;2022-12-29T10:46:24;13.00;74.10
1347;DHT22;667;48.796;9.480;2022-12-29T10:48:51;13.10;74.00
1347;DHT22;667;48.796;9.480;2022-12-29T10:51:31;13.10;73.80
1347;DHT22;667;48.796;9.480;2022-12-29T10:54:06;13.20;73.40
1347;DHT22;667;48.796;9.480;2022-12-29T10:59:22;13.30;72.70
1347;DHT22;667;48.796;9.480;2022-12-29T11:07:07;14.00;71.80
1347;DHT22;667;48.796;9.480;2022-12-29T11:09:36;14.20;70.80
1347;DHT22;667;48.796;9.480;2022-12-29T11:12:28;14.30;70.50
1347;DHT22;667;48.796;9.480;2022-12-29T11:15:15;14.50;70.10
1347;DHT22;667;48.796;9.480;2022-12-29T11:18:16;14.60;69.30
1347;DHT22;667;48.796;9.480;2022-12-29T11:20:43;14.90;68.70
1347;DHT22;667;48.796;9.480;2022-12-29T11:23:44;14.90;67.70
1347;DHT22;667;48.796;9.480;2022-12-29T11:26:21;14.90;67.00
1347;DHT22;667;48.796;9.480;2022-12-29T11:29:08;14.90;67.00
1347;DHT22;667;48.796;9.480;2022-12-29T11:34:34;14.80;66.50
1347;DHT22;667;48.796;9.480;2022-12-29T11:37:04;14.90;66.60
1347;DHT22;667;48.796;9.480;2022-12-29T11:42:15;14.80;66.50
1347;DHT22;667;48.796;9.480;2022-12-29T11:44:44;14.80;67.00
1347;DHT22;667;48.796;9.480;2022-12-29T11:47:21;14.70;67.00
1347;DHT22;667;48.796;9.480;2022-12-29T11:49:51;14.70;67.30
1347;DHT22;667;48.796;9.480;2022-12-29T11:52:24;14.70;67.60
1347;DHT22;667;48.796;9.480;2022-12-29T11:54:52;14.60;67.50
1347;DHT22;667;48.796;9.480;2022-12-29T11:57:19;14.60;67.80
1347;DHT22;667;48.796;9.480;2022-12-29T11:59:53;14.50;67.90
1347;DHT22;667;48.796;9.480;2022-12-29T12:02:28;14.50;68.00
1347;DHT22;667;48.796;9.480;2022-12-29T12:05:08;14.50;68.80
1347;DHT22;667;48.796;9.480;2022-12-29T12:07:44;14.50;70.00
1347;DHT22;667;48.796;9.480;2022-12-29T12:10:21;14.40;69.30
1347;DHT22;667;48.796;9.480;2022-12-29T12:16:09;14.50;70.00
1347;DHT22;667;48.796;9.480;2022-12-29T12:18:48;14.50;69.80
1347;DHT22;667;48.796;9.480;2022-12-29T12:21:29;14.50;69.80
1347;DHT22;667;48.796;9.480;2022-12-29T12:24:21;14.40;70.20
1347;DHT22;667;48.796;9.480;2022-12-29T12:27:20;14.40;70.50
1347;DHT22;667;48.796;9.480;2022-12-29T12:29:59;14.50;70.60
1347;DHT22;667;48.796;9.480;2022-12-29T12:46:37;14.30;71.20
1347;DHT22;667;48.796;9.480;2022-12-29T12:49:38;14.30;71.80
1347;DHT22;667;48.796;9.480;2022-12-29T12:52:19;14.30;72.00
1347;DHT22;667;48.796;9.480;2022-12-29T13:00:14;14.20;72.50
1347;DHT22;667;48.796;9.480;2022-12-29T13:36:52;14.10;75.80
1347;DHT22;667;48.796;9.480;2022-12-29T13:39:17;14.10;75.90
1347;DHT22;667;48.796;9.480;2022-12-29T13:41:48;14.10;75.80
1347;DHT22;667;48.796;9.480;2022-12-29T13:44:20;14.10;75.90
1347;DHT22;667;48.796;9.480;2022-12-29T13:46:48;14.10;75.80
1347;DHT22;667;48.796;9.480;2022-12-29T13:49:18;14.10;75.70
1347;DHT22;667;48.796;9.480;2022-12-29T13:51:58;14.10;75.70
1347;DHT22;667;48.796;9.480;2022-12-29T13:55:02;14.10;75.60
1347;DHT22;667;48.796;9.480;2022-12-29T14:00:12;14.10;75.60
1347;DHT22;667;48.796;9.480;2022-12-29T14:05:45;14.00;75.40
1347;DHT22;667;48.796;9.480;2022-12-29T14:08:27;14.00;75.30
1347;DHT22;667;48.796;9.480;2022-12-29T14:10:53;14.00;75.30
1347;DHT22;667;48.796;9.480;2022-12-29T14:13:22;14.00;75.40
1347;DHT22;667;48.796;9.480;2022-12-29T14:15:57;14.00;75.40
1347;DHT22;667;48.796;9.480;2022-12-29T14:18:33;14.00;75.40
1347;DHT22;667;48.796;9.480;2022-12-29T14:23:44;14.00;75.70
1347;DHT22;667;48.796;9.480;2022-12-29T14:28:54;14.00;75.70
1347;DHT22;667;48.796;9.480;2022-12-29T14:31:40;14.00;75.70
1347;DHT22;667;48.796;9.480;2022-12-29T14:36:37;14.10;75.70
1347;DHT22;667;48.796;9.480;2022-12-29T14:39:18;14.00;75.70
1347;DHT22;667;48.796;9.480;2022-12-29T14:42:00;14.00;75.70
1347;DHT22;667;48.796;9.480;2022-12-29T14:44:26;14.00;75.70
1347;DHT22;667;48.796;9.480;2022-12-29T14:46:58;14.00;75.70
1347;DHT22;667;48.796;9.480;2022-12-29T14:49:31;14.00;75.80
1347;DHT22;667;48.796;9.480;2022-12-29T14:52:21;13.90;75.80
1347;DHT22;667;48.796;9.480;2022-12-29T14:54:52;13.90;75.90
1347;DHT22;667;48.796;9.480;2022-12-29T14:57:40;13.90;76.00
1347;DHT22;667;48.796;9.480;2022-12-29T15:00:23;13.90;76.00
1347;DHT22;667;48.796;9.480;2022-12-29T15:03:14;13.90;76.20
1347;DHT22;667;48.796;9.480;2022-12-29T15:08:13;13.80;76.00
1347;DHT22;667;48.796;9.480;2022-12-29T15:11:14;13.80;76.00
1347;DHT22;667;48.796;9.480;2022-12-29T15:13:42;13.70;76.10
1347;DHT22;667;48.796;9.480;2022-12-29T15:16:26;13.70;76.10
1347;DHT22;667;48.796;9.480;2022-12-29T15:18:54;13.70;76.20
1347;DHT22;667;48.796;9.480;2022-12-29T15:21:32;13.70;76.30
1347;DHT22;667;48.796;9.480;2022-12-29T15:23:59;13.60;76.20
1347;DHT22;667;48.796;9.480;2022-12-29T15:26:38;13.60;76.40
1347;DHT22;667;48.796;9.480;2022-12-29T15:29:04;13.60;76.40
1347;DHT22;667;48.796;9.480;2022-12-29T15:31:29;13.60;76.50
1347;DHT22;667;48.796;9.480;2022-12-29T15:34:11;13.50;76.50
1347;DHT22;667;48.796;9.480;2022-12-29T15:36:38;13.50;76.50
1347;DHT22;667;48.796;9.480;2022-12-29T15:39:25;13.40;76.30
1347;DHT22;667;48.796;9.480;2022-12-29T15:41:59;13.40;76.40
1347;DHT22;667;48.796;9.480;2022-12-29T15:44:40;13.30;76.40
1347;DHT22;667;48.796;9.480;2022-12-29T15:47:22;13.30;76.60
1347;DHT22;667;48.796;9.480;2022-12-29T15:49:53;13.20;76.80
1347;DHT22;667;48.796;9.480;2022-12-29T15:52:23;13.20;77.10
1347;DHT22;667;48.796;9.480;2022-12-29T15:54:51;13.10;77.30
1347;DHT22;667;48.796;9.480;2022-12-29T15:57:26;13.10;77.40
1347;DHT22;667;48.796;9.480;2022-12-29T15:59:52;13.10;77.50
1347;DHT22;667;48.796;9.480;2022-12-29T16:02:22;13.10;77.50
1347;DHT22;667;48.796;9.480;2022-12-29T16:04:49;13.10;77.50
1347;DHT22;667;48.796;9.480;2022-12-29T16:07:30;13.10;77.40
1347;DHT22;667;48.796;9.480;2022-12-29T16:09:58;13.10;77.30
1347;DHT22;667;48.796;9.480;2022-12-29T16:12:36;13.10;77.30
1347;DHT22;667;48.796;9.480;2022-12-29T16:15:05;13.20;77.40
1347;DHT22;667;48.796;9.480;2022-12-29T16:17:36;13.20;77.00
1347;DHT22;667;48.796;9.480;2022-12-29T16:20:15;13.20;76.20
1347;DHT22;667;48.796;9.480;2022-12-29T16:22:47;13.10;76.40
1347;DHT22;667;48.796;9.480;2022-12-29T16:25:25;13.10;77.10
1347;DHT22;667;48.796;9.480;2022-12-29T16:27:53;13.00;77.60
1347;DHT22;667;48.796;9.480;2022-12-29T16:32:54;12.90;78.80
1347;DHT22;667;48.796;9.480;2022-12-29T16:35:23;12.80;79.40
1347;DHT22;667;48.796;9.480;2022-12-29T16:40:37;12.80;80.80
1347;DHT22;667;48.796;9.480;2022-12-29T16:43:04;12.70;81.20
1347;DHT22;667;48.796;9.480;2022-12-29T16:50:41;12.60;82.50
1347;DHT22;667;48.796;9.480;2022-12-29T16:53:24;12.60;82.80
1347;DHT22;667;48.796;9.480;2022-12-29T16:55:52;12.60;83.10
1347;DHT22;667;48.796;9.480;2022-12-29T16:58:24;12.60;83.20
1347;DHT22;667;48.796;9.480;2022-12-29T17:00:53;12.60;83.40
1347;DHT22;667;48.796;9.480;2022-12-29T17:03:19;12.60;83.50
1347;DHT22;667;48.796;9.480;2022-12-29T17:05:45;12.50;83.50
1347;DHT22;667;48.796;9.480;2022-12-29T17:08:19;12.50;83.70
1347;DHT22;667;48.796;9.480;2022-12-29T17:10:55;12.50;83.80
1347;DHT22;667;48.796;9.480;2022-12-29T17:13:39;12.50;84.00
1347;DHT22;667;48.796;9.480;2022-12-29T17:16:06;12.50;84.10
1347;DHT22;667;48.796;9.480;2022-12-29T17:18:33;12.40;84.20
1347;DHT22;667;48.796;9.480;2022-12-29T17:20:59;12.40;84.30
1347;DHT22;667;48.796;9.480;2022-12-29T17:23:25;12.40;84.50
1347;DHT22;667;48.796;9.480;2022-12-29T17:25:51;12.40;84.70
1347;DHT22;667;48.796;9.480;2022-12-29T17:30:49;12.40;84.90
1347;DHT22;667;48.796;9.480;2022-12-29T17:33:19;12.40;85.10
1347;DHT22;667;48.796;9.480;2022-12-29T17:35:45;12.40;85.40
1347;DHT22;667;48.796;9.480;2022-12-29T17:38:33;12.30;85.50
1347;DHT22;667;48.796;9.480;2022-12-29T17:40:59;12.30;85.60
1347;DHT22;667;48.796;9.480;2022-12-29T17:43:25;12.30;85.70
1347;DHT22;667;48.796;9.480;2022-12-29T17:45:56;12.30;85.90
1347;DHT22;667;48.796;9.480;2022-12-29T17:48:23;12.30;86.10
1347;DHT22;667;48.796;9.480;2022-12-29T17:50:50;12.30;86.20
1347;DHT22;667;48.796;9.480;2022-12-29T17:53:22;12.20;86.30
1347;DHT22;667;48.796;9.480;2022-12-29T17:55:48;12.20;86.50
1347;DHT22;667;48.796;9.480;2022-12-29T18:00:43;12.20;87.60
1347;DHT22;667;48.796;9.480;2022-12-29T18:03:17;12.20;87.00
1347;DHT22;667;48.796;9.480;2022-12-29T18:05:44;12.20;87.20
1347;DHT22;667;48.796;9.480;2022-12-29T18:08:10;12.20;87.40
1347;DHT22;667;48.796;9.480;2022-12-29T18:10:37;12.20;87.40
1347;DHT22;667;48.796;9.480;2022-12-29T18:13:03;12.20;87.50
1347;DHT22;667;48.796;9.480;2022-12-29T18:15:32;12.20;87.60
1347;DHT22;667;48.796;9.480;2022-12-29T18:18:09;12.20;87.50
1347;DHT22;667;48.796;9.480;2022-12-29T18:20:35;12.20;87.60
1347;DHT22;667;48.796;9.480;2022-12-29T18:23:01;12.10;87.50
1347;DHT22;667;48.796;9.480;2022-12-29T18:25:32;12.10;87.60
1347;DHT22;667;48.796;9.480;2022-12-29T18:28:01;12.10;87.70
1347;DHT22;667;48.796;9.480;2022-12-29T18:30:26;12.10;87.80
1347;DHT22;667;48.796;9.480;2022-12-29T18:32:52;12.10;87.80
1347;DHT22;667;48.796;9.480;2022-12-29T18:35:38;12.10;88.00
1347;DHT22;667;48.796;9.480;2022-12-29T18:38:05;12.10;88.20
1347;DHT22;667;48.796;9.480;2022-12-29T18:40:34;12.00;88.20
1347;DHT22;667;48.796;9.480;2022-12-29T18:43:01;12.00;88.30
1347;DHT22;667;48.796;9.480;2022-12-29T18:45:29;12.00;88.40
1347;DHT22;667;48.796;9.480;2022-12-29T18:47:54;12.00;88.50
1347;DHT22;667;48.796;9.480;2022-12-29T18:50:20;12.00;88.60
1347;DHT22;667;48.796;9.480;2022-12-29T18:52:46;12.00;88.70
1347;DHT22;667;48.796;9.480;2022-12-29T18:55:17;11.90;88.80
1347;DHT22;667;48.796;9.480;2022-12-29T18:57:44;11.90;89.10
1347;DHT22;667;48.796;9.480;2022-12-29T19:00:11;11.90;89.30
1347;DHT22;667;48.796;9.480;2022-12-29T19:02:37;11.80;89.50
1347;DHT22;667;48.796;9.480;2022-12-29T19:05:03;11.90;89.80
1347;DHT22;667;48.796;9.480;2022-12-29T19:07:29;11.90;90.00
1347;DHT22;667;48.796;9.480;2022-12-29T19:09:55;11.80;90.00
1347;DHT22;667;48.796;9.480;2022-12-29T19:12:21;11.80;90.10
1347;DHT22;667;48.796;9.480;2022-12-29T19:14:47;11.80;90.10
1347;DHT22;667;48.796;9.480;2022-12-29T19:17:13;11.80;90.10
1347;DHT22;667;48.796;9.480;2022-12-29T19:19:39;11.80;90.10
1347;DHT22;667;48.796;9.480;2022-12-29T19:22:05;11.80;90.20
1347;DHT22;667;48.796;9.480;2022-12-29T19:24:31;11.80;90.20